sensor_id;sensor_type;location;lat;lon;timestamp;temperature;humidity
43651;DHT22;29247;50.944;5.382;2022-10-26T00:01:12;14.30;87.00
43651;DHT22;29247;50.944;5.382;2022-10-26T00:03:41;14.30;87.00
43651;DHT22;29247;50.944;5.382;2022-10-26T00:06:14;14.30;87.00
43651;DHT22;29247;50.944;5.382;2022-10-26T00:08:42;14.30;86.90
43651;DHT22;29247;50.944;5.382;2022-10-26T00:11:14;14.30;86.90
43651;DHT22;29247;50.944;5.382;2022-10-26T00:13:40;14.30;86.80
43651;DHT22;29247;50.944;5.382;2022-10-26T00:16:32;14.30;86.90
43651;DHT22;29247;50.944;5.382;2022-10-26T00:19:00;14.30;87.10
43651;DHT22;29247;50.944;5.382;2022-10-26T00:21:25;14.30;87.00
43651;DHT22;29247;50.944;5.382;2022-10-26T00:23:51;14.20;87.10
43651;DHT22;29247;50.944;5.382;2022-10-26T00:26:19;14.30;87.20
43651;DHT22;29247;50.944;5.382;2022-10-26T00:28:44;14.30;87.20
43651;DHT22;29247;50.944;5.382;2022-10-26T00:31:14;14.30;87.20
43651;DHT22;29247;50.944;5.382;2022-10-26T00:33:45;14.30;87.20
43651;DHT22;29247;50.944;5.382;2022-10-26T00:36:13;14.30;87.30
43651;DHT22;29247;50.944;5.382;2022-10-26T00:38:47;14.30;87.30
43651;DHT22;29247;50.944;5.382;2022-10-26T00:41:18;14.30;88.10
43651;DHT22;29247;50.944;5.382;2022-10-26T00:43:44;14.30;87.40
43651;DHT22;29247;50.944;5.382;2022-10-26T00:46:40;14.30;87.40
43651;DHT22;29247;50.944;5.382;2022-10-26T00:49:15;14.30;87.60
43651;DHT22;29247;50.944;5.382;2022-10-26T00:51:53;14.30;87.60
43651;DHT22;29247;50.944;5.382;2022-10-26T00:54:22;14.30;87.70
43651;DHT22;29247;50.944;5.382;2022-10-26T00:56:50;14.30;87.70
43651;DHT22;29247;50.944;5.382;2022-10-26T00:59:22;14.30;87.80
43651;DHT22;29247;50.944;5.382;2022-10-26T01:01:48;14.30;87.80
43651;DHT22;29247;50.944;5.382;2022-10-26T01:04:15;14.30;87.90
43651;DHT22;29247;50.944;5.382;2022-10-26T01:06:44;14.40;88.10
43651;DHT22;29247;50.944;5.382;2022-10-26T01:09:13;14.40;88.10
43651;DHT22;29247;50.944;5.382;2022-10-26T01:11:38;14.40;88.10
43651;DHT22;29247;50.944;5.382;2022-10-26T01:14:09;14.40;88.10
43651;DHT22;29247;50.944;5.382;2022-10-26T01:16:39;14.40;88.10
43651;DHT22;29247;50.944;5.382;2022-10-26T01:22:05;14.40;88.40
43651;DHT22;29247;50.944;5.382;2022-10-26T01:27:29;14.50;88.10
43651;DHT22;29247;50.944;5.382;2022-10-26T01:33:00;14.50;88.50
43651;DHT22;29247;50.944;5.382;2022-10-26T01:35:54;14.50;88.60
43651;DHT22;29247;50.944;5.382;2022-10-26T01:38:37;14.50;88.60
43651;DHT22;29247;50.944;5.382;2022-10-26T01:44:11;14.50;88.50
43651;DHT22;29247;50.944;5.382;2022-10-26T01:46:41;14.50;88.60
43651;DHT22;29247;50.944;5.382;2022-10-26T01:49:15;14.50;88.50
43651;DHT22;29247;50.944;5.382;2022-10-26T01:51:43;14.50;88.50
43651;DHT22;29247;50.944;5.382;2022-10-26T01:54:09;14.50;88.50
43651;DHT22;29247;50.944;5.382;2022-10-26T01:56:38;14.60;88.60
43651;DHT22;29247;50.944;5.382;2022-10-26T01:59:12;14.60;88.60
43651;DHT22;29247;50.944;5.382;2022-10-26T02:04:27;14.60;88.50
43651;DHT22;29247;50.944;5.382;2022-10-26T02:13:09;14.60;88.60
43651;DHT22;29247;50.944;5.382;2022-10-26T02:15:50;14.60;89.30
43651;DHT22;29247;50.944;5.382;2022-10-26T02:18:49;14.60;88.50
43651;DHT22;29247;50.944;5.382;2022-10-26T02:21:21;14.60;88.60
43651;DHT22;29247;50.944;5.382;2022-10-26T02:23:53;14.60;88.60
43651;DHT22;29247;50.944;5.382;2022-10-26T02:26:24;14.60;88.60
43651;DHT22;29247;50.944;5.382;2022-10-26T02:28:56;14.60;88.60
43651;DHT22;29247;50.944;5.382;2022-10-26T02:31:25;14.60;88.60
43651;DHT22;29247;50.944;5.382;2022-10-26T02:33:54;14.60;88.60
43651;DHT22;29247;50.944;5.382;2022-10-26T02:36:26;14.70;88.60
43651;DHT22;29247;50.944;5.382;2022-10-26T02:38:58;14.70;88.60
43651;DHT22;29247;50.944;5.382;2022-10-26T02:41:27;14.70;88.50
43651;DHT22;29247;50.944;5.382;2022-10-26T02:46:54;14.70;88.50
43651;DHT22;29247;50.944;5.382;2022-10-26T02:49:22;14.70;88.40
43651;DHT22;29247;50.944;5.382;2022-10-26T02:54:38;14.70;88.50
43651;DHT22;29247;50.944;5.382;2022-10-26T02:57:18;14.70;88.40
43651;DHT22;29247;50.944;5.382;2022-10-26T02:59:47;14.70;88.50
43651;DHT22;29247;50.944;5.382;2022-10-26T03:02:19;14.70;88.50
43651;DHT22;29247;50.944;5.382;2022-10-26T03:04:48;14.70;88.50
43651;DHT22;29247;50.944;5.382;2022-10-26T03:07:27;14.70;88.50
43651;DHT22;29247;50.944;5.382;2022-10-26T03:09:53;14.80;88.70
43651;DHT22;29247;50.944;5.382;2022-10-26T03:12:21;14.80;89.30
43651;DHT22;29247;50.944;5.382;2022-10-26T03:14:47;14.80;88.60
43651;DHT22;29247;50.944;5.382;2022-10-26T03:17:13;14.80;88.70
43651;DHT22;29247;50.944;5.382;2022-10-26T03:19:41;14.80;88.70
43651;DHT22;29247;50.944;5.382;2022-10-26T03:22:07;14.80;88.70
43651;DHT22;29247;50.944;5.382;2022-10-26T03:24:32;14.80;88.70
43651;DHT22;29247;50.944;5.382;2022-10-26T03:27:01;14.80;88.60
43651;DHT22;29247;50.944;5.382;2022-10-26T03:29:28;14.80;88.50
43651;DHT22;29247;50.944;5.382;2022-10-26T03:31:54;14.80;88.50
43651;DHT22;29247;50.944;5.382;2022-10-26T03:34:22;14.80;88.40
43651;DHT22;29247;50.944;5.382;2022-10-26T03:36:52;14.80;88.50
43651;DHT22;29247;50.944;5.382;2022-10-26T03:39:20;14.80;88.50
43651;DHT22;29247;50.944;5.382;2022-10-26T03:41:45;14.80;88.50
43651;DHT22;29247;50.944;5.382;2022-10-26T03:44:14;14.80;88.50
43651;DHT22;29247;50.944;5.382;2022-10-26T03:46:40;14.80;88.50
43651;DHT22;29247;50.944;5.382;2022-10-26T03:49:06;14.80;88.50
43651;DHT22;29247;50.944;5.382;2022-10-26T03:51:34;14.90;88.50
43651;DHT22;29247;50.944;5.382;2022-10-26T03:54:02;14.90;88.50
43651;DHT22;29247;50.944;5.382;2022-10-26T03:56:30;14.90;88.50
43651;DHT22;29247;50.944;5.382;2022-10-26T03:58:56;14.90;88.50
43651;DHT22;29247;50.944;5.382;2022-10-26T04:01:21;14.90;88.40
43651;DHT22;29247;50.944;5.382;2022-10-26T04:03:47;14.90;88.40
43651;DHT22;29247;50.944;5.382;2022-10-26T04:06:12;14.90;88.40
43651;DHT22;29247;50.944;5.382;2022-10-26T04:08:42;14.90;88.40
43651;DHT22;29247;50.944;5.382;2022-10-26T04:11:08;14.90;88.40
43651;DHT22;29247;50.944;5.382;2022-10-26T04:13:34;14.90;88.40
43651;DHT22;29247;50.944;5.382;2022-10-26T04:15:59;14.90;88.40
43651;DHT22;29247;50.944;5.382;2022-10-26T04:18:27;14.90;88.40
43651;DHT22;29247;50.944;5.382;2022-10-26T04:20:55;14.90;88.50
43651;DHT22;29247;50.944;5.382;2022-10-26T04:23:24;14.90;88.40
43651;DHT22;29247;50.944;5.382;2022-10-26T04:25:52;14.90;88.50
43651;DHT22;29247;50.944;5.382;2022-10-26T04:28:20;14.90;88.40
43651;DHT22;29247;50.944;5.382;2022-10-26T04:30:46;14.90;88.40
43651;DHT22;29247;50.944;5.382;2022-10-26T04:33:12;14.90;88.50
43651;DHT22;29247;50.944;5.382;2022-10-26T04:35:37;14.90;88.50
43651;DHT22;29247;50.944;5.382;2022-10-26T04:38:05;14.90;88.60
43651;DHT22;29247;50.944;5.382;2022-10-26T04:40:33;14.90;88.60
43651;DHT22;29247;50.944;5.382;2022-10-26T04:42:59;15.00;88.70
43651;DHT22;29247;50.944;5.382;2022-10-26T04:45:27;15.00;88.70
43651;DHT22;29247;50.944;5.382;2022-10-26T04:48:03;15.00;88.70
43651;DHT22;29247;50.944;5.382;2022-10-26T04:50:30;15.00;88.70
43651;DHT22;29247;50.944;5.382;2022-10-26T04:52:59;15.00;88.70
43651;DHT22;29247;50.944;5.382;2022-10-26T04:55:25;15.00;88.80
43651;DHT22;29247;50.944;5.382;2022-10-26T04:57:55;15.00;88.80
43651;DHT22;29247;50.944;5.382;2022-10-26T05:00:20;15.00;88.80
43651;DHT22;29247;50.944;5.382;2022-10-26T05:02:47;15.00;88.90
43651;DHT22;29247;50.944;5.382;2022-10-26T05:05:14;15.00;89.10
43651;DHT22;29247;50.944;5.382;2022-10-26T05:07:40;15.00;89.20
43651;DHT22;29247;50.944;5.382;2022-10-26T05:10:09;15.00;89.20
43651;DHT22;29247;50.944;5.382;2022-10-26T05:12:34;15.00;89.30
43651;DHT22;29247;50.944;5.382;2022-10-26T05:15:02;15.10;89.40
43651;DHT22;29247;50.944;5.382;2022-10-26T05:17:30;15.10;89.50
43651;DHT22;29247;50.944;5.382;2022-10-26T05:19:58;15.10;89.50
43651;DHT22;29247;50.944;5.382;2022-10-26T05:22:32;15.20;89.70
43651;DHT22;29247;50.944;5.382;2022-10-26T05:25:03;15.20;89.80
43651;DHT22;29247;50.944;5.382;2022-10-26T05:27:31;15.30;89.90
43651;DHT22;29247;50.944;5.382;2022-10-26T05:29:59;15.40;89.70
43651;DHT22;29247;50.944;5.382;2022-10-26T05:32:27;15.40;89.70
43651;DHT22;29247;50.944;5.382;2022-10-26T05:34:56;15.40;89.70
43651;DHT22;29247;50.944;5.382;2022-10-26T05:37:22;15.40;89.60
43651;DHT22;29247;50.944;5.382;2022-10-26T05:39:58;15.50;89.50
43651;DHT22;29247;50.944;5.382;2022-10-26T05:42:24;15.50;89.40
43651;DHT22;29247;50.944;5.382;2022-10-26T05:44:50;15.60;89.30
43651;DHT22;29247;50.944;5.382;2022-10-26T05:47:19;15.60;89.30
43651;DHT22;29247;50.944;5.382;2022-10-26T05:49:47;15.60;89.10
43651;DHT22;29247;50.944;5.382;2022-10-26T05:52:15;15.70;89.00
43651;DHT22;29247;50.944;5.382;2022-10-26T05:54:41;15.70;88.90
43651;DHT22;29247;50.944;5.382;2022-10-26T05:57:10;15.70;88.80
43651;DHT22;29247;50.944;5.382;2022-10-26T05:59:36;15.80;88.70
43651;DHT22;29247;50.944;5.382;2022-10-26T06:02:22;15.80;88.60
43651;DHT22;29247;50.944;5.382;2022-10-26T06:04:55;15.80;88.50
43651;DHT22;29247;50.944;5.382;2022-10-26T06:07:28;15.80;88.20
43651;DHT22;29247;50.944;5.382;2022-10-26T06:09:57;15.80;88.20
43651;DHT22;29247;50.944;5.382;2022-10-26T06:12:23;15.80;88.10
43651;DHT22;29247;50.944;5.382;2022-10-26T06:14:53;15.80;88.10
43651;DHT22;29247;50.944;5.382;2022-10-26T06:20:23;15.90;88.00
43651;DHT22;29247;50.944;5.382;2022-10-26T06:31:53;16.00;87.60
43651;DHT22;29247;50.944;5.382;2022-10-26T06:34:26;16.00;87.50
43651;DHT22;29247;50.944;5.382;2022-10-26T06:36:52;16.00;87.50
43651;DHT22;29247;50.944;5.382;2022-10-26T06:39:22;16.00;87.40
43651;DHT22;29247;50.944;5.382;2022-10-26T06:41:49;16.00;87.50
43651;DHT22;29247;50.944;5.382;2022-10-26T06:44:22;16.00;87.40
43651;DHT22;29247;50.944;5.382;2022-10-26T06:46:58;16.00;87.50
43651;DHT22;29247;50.944;5.382;2022-10-26T06:52:32;16.00;87.20
43651;DHT22;29247;50.944;5.382;2022-10-26T06:54:59;16.00;87.10
43651;DHT22;29247;50.944;5.382;2022-10-26T06:57:34;16.00;87.10
43651;DHT22;29247;50.944;5.382;2022-10-26T07:00:12;16.00;87.30
43651;DHT22;29247;50.944;5.382;2022-10-26T07:02:41;15.90;87.30
43651;DHT22;29247;50.944;5.382;2022-10-26T07:05:09;15.90;87.30
43651;DHT22;29247;50.944;5.382;2022-10-26T07:07:45;15.90;87.30
43651;DHT22;29247;50.944;5.382;2022-10-26T07:10:16;15.90;87.40
43651;DHT22;29247;50.944;5.382;2022-10-26T07:12:44;16.00;87.40
43651;DHT22;29247;50.944;5.382;2022-10-26T07:15:10;16.00;87.50
43651;DHT22;29247;50.944;5.382;2022-10-26T07:17:43;16.00;87.50
43651;DHT22;29247;50.944;5.382;2022-10-26T07:20:11;16.00;87.50
43651;DHT22;29247;50.944;5.382;2022-10-26T07:22:38;16.00;87.50
43651;DHT22;29247;50.944;5.382;2022-10-26T07:25:05;16.00;88.20
43651;DHT22;29247;50.944;5.382;2022-10-26T07:27:32;16.00;87.50
43651;DHT22;29247;50.944;5.382;2022-10-26T07:29:58;16.00;87.50
43651;DHT22;29247;50.944;5.382;2022-10-26T07:32:23;16.00;87.50
43651;DHT22;29247;50.944;5.382;2022-10-26T07:34:49;16.00;87.50
43651;DHT22;29247;50.944;5.382;2022-10-26T07:37:17;16.00;87.60
43651;DHT22;29247;50.944;5.382;2022-10-26T07:39:45;16.00;87.60
43651;DHT22;29247;50.944;5.382;2022-10-26T07:42:11;16.10;87.70
43651;DHT22;29247;50.944;5.382;2022-10-26T07:44:36;16.00;87.70
43651;DHT22;29247;50.944;5.382;2022-10-26T07:47:05;16.10;87.60
43651;DHT22;29247;50.944;5.382;2022-10-26T07:49:31;16.10;87.70
43651;DHT22;29247;50.944;5.382;2022-10-26T07:52:00;16.10;87.60
43651;DHT22;29247;50.944;5.382;2022-10-26T07:54:26;16.10;87.60
43651;DHT22;29247;50.944;5.382;2022-10-26T07:56:54;16.10;87.70
43651;DHT22;29247;50.944;5.382;2022-10-26T07:59:22;16.10;87.60
43651;DHT22;29247;50.944;5.382;2022-10-26T08:01:48;16.20;87.70
43651;DHT22;29247;50.944;5.382;2022-10-26T08:04:18;16.30;87.70
43651;DHT22;29247;50.944;5.382;2022-10-26T08:06:44;16.20;87.50
43651;DHT22;29247;50.944;5.382;2022-10-26T08:09:11;16.30;87.60
43651;DHT22;29247;50.944;5.382;2022-10-26T08:11:37;16.30;87.70
43651;DHT22;29247;50.944;5.382;2022-10-26T08:14:05;16.30;87.60
43651;DHT22;29247;50.944;5.382;2022-10-26T08:16:31;16.40;87.60
43651;DHT22;29247;50.944;5.382;2022-10-26T08:19:01;16.40;87.50
43651;DHT22;29247;50.944;5.382;2022-10-26T08:21:29;16.50;87.50
43651;DHT22;29247;50.944;5.382;2022-10-26T08:23:57;16.50;87.40
43651;DHT22;29247;50.944;5.382;2022-10-26T08:26:24;16.50;87.30
43651;DHT22;29247;50.944;5.382;2022-10-26T08:28:51;16.50;87.20
43651;DHT22;29247;50.944;5.382;2022-10-26T08:31:25;16.60;87.20
43651;DHT22;29247;50.944;5.382;2022-10-26T08:33:50;16.60;87.20
43651;DHT22;29247;50.944;5.382;2022-10-26T08:36:21;16.70;87.20
43651;DHT22;29247;50.944;5.382;2022-10-26T08:38:48;16.70;87.10
43651;DHT22;29247;50.944;5.382;2022-10-26T08:41:13;16.70;87.20
43651;DHT22;29247;50.944;5.382;2022-10-26T08:43:42;16.70;87.30
43651;DHT22;29247;50.944;5.382;2022-10-26T08:46:18;16.80;87.30
43651;DHT22;29247;50.944;5.382;2022-10-26T08:48:49;16.80;87.30
43651;DHT22;29247;50.944;5.382;2022-10-26T08:51:24;16.80;87.30
43651;DHT22;29247;50.944;5.382;2022-10-26T08:54:08;16.90;87.30
43651;DHT22;29247;50.944;5.382;2022-10-26T08:56:48;16.90;87.30
43651;DHT22;29247;50.944;5.382;2022-10-26T08:59:45;17.00;87.40
43651;DHT22;29247;50.944;5.382;2022-10-26T09:02:16;17.00;87.20
43651;DHT22;29247;50.944;5.382;2022-10-26T09:04:42;17.10;87.10
43651;DHT22;29247;50.944;5.382;2022-10-26T09:07:58;17.10;87.00
43651;DHT22;29247;50.944;5.382;2022-10-26T09:26:15;17.50;86.70
43651;DHT22;29247;50.944;5.382;2022-10-26T09:28:44;17.60;86.80
43651;DHT22;29247;50.944;5.382;2022-10-26T09:31:15;17.60;86.70
43651;DHT22;29247;50.944;5.382;2022-10-26T09:33:42;17.70;86.60
43651;DHT22;29247;50.944;5.382;2022-10-26T09:36:13;17.80;86.40
43651;DHT22;29247;50.944;5.382;2022-10-26T09:39:12;17.90;86.20
43651;DHT22;29247;50.944;5.382;2022-10-26T09:41:59;17.90;86.30
43651;DHT22;29247;50.944;5.382;2022-10-26T09:44:28;18.00;86.20
43651;DHT22;29247;50.944;5.382;2022-10-26T09:49:48;18.10;85.80
43651;DHT22;29247;50.944;5.382;2022-10-26T09:52:16;18.20;85.70
43651;DHT22;29247;50.944;5.382;2022-10-26T09:54:44;18.30;85.60
43651;DHT22;29247;50.944;5.382;2022-10-26T09:57:17;18.40;85.60
43651;DHT22;29247;50.944;5.382;2022-10-26T09:59:45;18.40;85.40
43651;DHT22;29247;50.944;5.382;2022-10-26T10:02:39;18.50;85.20
43651;DHT22;29247;50.944;5.382;2022-10-26T10:05:34;18.60;85.20
43651;DHT22;29247;50.944;5.382;2022-10-26T10:08:20;18.70;84.70
43651;DHT22;29247;50.944;5.382;2022-10-26T10:11:07;18.70;84.40
43651;DHT22;29247;50.944;5.382;2022-10-26T10:13:37;18.80;84.30
43651;DHT22;29247;50.944;5.382;2022-10-26T10:18:43;18.90;83.80
43651;DHT22;29247;50.944;5.382;2022-10-26T10:21:19;19.00;83.50
43651;DHT22;29247;50.944;5.382;2022-10-26T10:23:50;19.00;83.10
43651;DHT22;29247;50.944;5.382;2022-10-26T10:26:19;19.00;83.20
43651;DHT22;29247;50.944;5.382;2022-10-26T10:28:59;19.10;83.80
43651;DHT22;29247;50.944;5.382;2022-10-26T10:31:36;19.00;82.90
43651;DHT22;29247;50.944;5.382;2022-10-26T10:34:15;19.10;82.80
43651;DHT22;29247;50.944;5.382;2022-10-26T10:36:43;19.10;82.50
43651;DHT22;29247;50.944;5.382;2022-10-26T10:41:57;19.20;82.40
43651;DHT22;29247;50.944;5.382;2022-10-26T10:44:30;19.20;82.40
43651;DHT22;29247;50.944;5.382;2022-10-26T10:47:04;19.30;82.30
43651;DHT22;29247;50.944;5.382;2022-10-26T10:49:31;19.30;82.10
43651;DHT22;29247;50.944;5.382;2022-10-26T10:51:59;19.40;82.00
43651;DHT22;29247;50.944;5.382;2022-10-26T10:57:01;19.50;81.90
43651;DHT22;29247;50.944;5.382;2022-10-26T10:59:33;19.50;81.80
43651;DHT22;29247;50.944;5.382;2022-10-26T11:07:41;19.70;81.60
43651;DHT22;29247;50.944;5.382;2022-10-26T11:10:12;19.70;81.20
43651;DHT22;29247;50.944;5.382;2022-10-26T11:12:55;19.80;81.20
43651;DHT22;29247;50.944;5.382;2022-10-26T11:15:27;19.80;81.00
43651;DHT22;29247;50.944;5.382;2022-10-26T11:18:11;19.80;80.80
43651;DHT22;29247;50.944;5.382;2022-10-26T11:20:53;19.80;80.70
43651;DHT22;29247;50.944;5.382;2022-10-26T11:23:29;19.90;80.60
43651;DHT22;29247;50.944;5.382;2022-10-26T11:26:27;19.90;80.50
43651;DHT22;29247;50.944;5.382;2022-10-26T11:29:02;20.00;80.50
43651;DHT22;29247;50.944;5.382;2022-10-26T11:31:56;20.00;80.20
43651;DHT22;29247;50.944;5.382;2022-10-26T11:40:21;20.10;79.80
43651;DHT22;29247;50.944;5.382;2022-10-26T11:45:56;20.20;79.10
43651;DHT22;29247;50.944;5.382;2022-10-26T11:48:35;20.20;78.60
43651;DHT22;29247;50.944;5.382;2022-10-26T11:51:02;20.20;78.20
43651;DHT22;29247;50.944;5.382;2022-10-26T11:53:40;20.30;78.10
43651;DHT22;29247;50.944;5.382;2022-10-26T11:56:15;20.30;78.10
43651;DHT22;29247;50.944;5.382;2022-10-26T11:58:48;20.30;77.80
43651;DHT22;29247;50.944;5.382;2022-10-26T12:01:14;20.30;77.60
43651;DHT22;29247;50.944;5.382;2022-10-26T12:03:44;20.30;77.50
43651;DHT22;29247;50.944;5.382;2022-10-26T12:06:15;20.30;77.50
43651;DHT22;29247;50.944;5.382;2022-10-26T12:08:49;20.30;77.20
43651;DHT22;29247;50.944;5.382;2022-10-26T12:11:34;20.40;77.10
43651;DHT22;29247;50.944;5.382;2022-10-26T12:14:20;20.40;76.90
43651;DHT22;29247;50.944;5.382;2022-10-26T12:17:06;20.40;76.40
43651;DHT22;29247;50.944;5.382;2022-10-26T12:22:26;20.40;76.20
43651;DHT22;29247;50.944;5.382;2022-10-26T12:35:37;20.60;75.40
43651;DHT22;29247;50.944;5.382;2022-10-26T12:41:17;20.60;74.50
43651;DHT22;29247;50.944;5.382;2022-10-26T12:43:45;20.60;74.20
43651;DHT22;29247;50.944;5.382;2022-10-26T12:48:48;20.60;73.70
43651;DHT22;29247;50.944;5.382;2022-10-26T12:59:28;20.70;73.50
43651;DHT22;29247;50.944;5.382;2022-10-26T13:04:58;20.70;73.40
43651;DHT22;29247;50.944;5.382;2022-10-26T13:07:39;20.70;73.10
43651;DHT22;29247;50.944;5.382;2022-10-26T13:12:58;20.70;72.80
43651;DHT22;29247;50.944;5.382;2022-10-26T13:15:39;20.70;72.90
43651;DHT22;29247;50.944;5.382;2022-10-26T13:18:18;20.80;72.90
43651;DHT22;29247;50.944;5.382;2022-10-26T13:21:08;20.80;72.50
43651;DHT22;29247;50.944;5.382;2022-10-26T13:23:42;20.70;72.10
43651;DHT22;29247;50.944;5.382;2022-10-26T13:26:12;20.80;71.90
43651;DHT22;29247;50.944;5.382;2022-10-26T13:34:03;20.80;71.70
43651;DHT22;29247;50.944;5.382;2022-10-26T13:36:46;20.80;71.50
43651;DHT22;29247;50.944;5.382;2022-10-26T13:39:26;20.70;71.50
43651;DHT22;29247;50.944;5.382;2022-10-26T13:41:54;20.80;71.60
43651;DHT22;29247;50.944;5.382;2022-10-26T13:44:30;20.80;71.70
43651;DHT22;29247;50.944;5.382;2022-10-26T13:47:04;20.80;72.50
43651;DHT22;29247;50.944;5.382;2022-10-26T13:49:43;20.80;71.80
43651;DHT22;29247;50.944;5.382;2022-10-26T13:52:28;20.80;71.80
43651;DHT22;29247;50.944;5.382;2022-10-26T13:55:02;20.70;71.70
43651;DHT22;29247;50.944;5.382;2022-10-26T13:57:42;20.80;71.80
43651;DHT22;29247;50.944;5.382;2022-10-26T14:00:29;20.70;72.00
43651;DHT22;29247;50.944;5.382;2022-10-26T14:02:55;20.70;72.00
43651;DHT22;29247;50.944;5.382;2022-10-26T14:05:21;20.80;72.00
43651;DHT22;29247;50.944;5.382;2022-10-26T14:07:57;20.70;72.10
43651;DHT22;29247;50.944;5.382;2022-10-26T14:10:36;20.70;72.30
43651;DHT22;29247;50.944;5.382;2022-10-26T14:13:13;20.70;72.30
43651;DHT22;29247;50.944;5.382;2022-10-26T14:15:43;20.70;72.40
43651;DHT22;29247;50.944;5.382;2022-10-26T14:18:24;20.70;72.40
43651;DHT22;29247;50.944;5.382;2022-10-26T14:25:58;20.70;72.30
43651;DHT22;29247;50.944;5.382;2022-10-26T14:28:30;20.70;72.20
43651;DHT22;29247;50.944;5.382;2022-10-26T14:31:38;20.70;73.00
43651;DHT22;29247;50.944;5.382;2022-10-26T14:34:03;20.70;72.20
43651;DHT22;29247;50.944;5.382;2022-10-26T14:36:42;20.70;72.10
43651;DHT22;29247;50.944;5.382;2022-10-26T14:41:52;20.70;72.10
43651;DHT22;29247;50.944;5.382;2022-10-26T14:44:23;20.70;71.90
43651;DHT22;29247;50.944;5.382;2022-10-26T14:46:50;20.70;72.00
43651;DHT22;29247;50.944;5.382;2022-10-26T14:49:22;20.70;71.90
43651;DHT22;29247;50.944;5.382;2022-10-26T14:51:59;20.70;72.00
43651;DHT22;29247;50.944;5.382;2022-10-26T14:54:28;20.70;71.90
43651;DHT22;29247;50.944;5.382;2022-10-26T14:56:55;20.70;71.70
43651;DHT22;29247;50.944;5.382;2022-10-26T14:59:24;20.70;71.80
43651;DHT22;29247;50.944;5.382;2022-10-26T15:04:36;20.70;72.00
43651;DHT22;29247;50.944;5.382;2022-10-26T15:09:40;20.60;71.80
43651;DHT22;29247;50.944;5.382;2022-10-26T15:12:13;20.60;71.80
43651;DHT22;29247;50.944;5.382;2022-10-26T15:14:42;20.60;71.80
43651;DHT22;29247;50.944;5.382;2022-10-26T15:17:20;20.60;71.80
43651;DHT22;29247;50.944;5.382;2022-10-26T15:19:48;20.60;72.00
43651;DHT22;29247;50.944;5.382;2022-10-26T15:22:22;20.60;72.00
43651;DHT22;29247;50.944;5.382;2022-10-26T15:24:53;20.60;72.10
43651;DHT22;29247;50.944;5.382;2022-10-26T15:27:22;20.60;72.10
43651;DHT22;29247;50.944;5.382;2022-10-26T15:30:07;20.50;72.20
43651;DHT22;29247;50.944;5.382;2022-10-26T15:32:36;20.50;72.40
43651;DHT22;29247;50.944;5.382;2022-10-26T15:35:29;20.50;72.50
43651;DHT22;29247;50.944;5.382;2022-10-26T15:37:58;20.50;72.70
43651;DHT22;29247;50.944;5.382;2022-10-26T15:40:27;20.50;72.80
43651;DHT22;29247;50.944;5.382;2022-10-26T15:42:57;20.40;72.80
43651;DHT22;29247;50.944;5.382;2022-10-26T15:45:31;20.40;73.10
43651;DHT22;29247;50.944;5.382;2022-10-26T15:47:59;20.40;73.30
43651;DHT22;29247;50.944;5.382;2022-10-26T15:50:40;20.40;73.40
43651;DHT22;29247;50.944;5.382;2022-10-26T15:53:15;20.40;73.50
43651;DHT22;29247;50.944;5.382;2022-10-26T15:55:44;20.40;73.70
43651;DHT22;29247;50.944;5.382;2022-10-26T15:58:13;20.40;73.90
43651;DHT22;29247;50.944;5.382;2022-10-26T16:00:38;20.40;74.10
43651;DHT22;29247;50.944;5.382;2022-10-26T16:03:04;20.40;74.20
43651;DHT22;29247;50.944;5.382;2022-10-26T16:05:32;20.40;74.40
43651;DHT22;29247;50.944;5.382;2022-10-26T16:07:58;20.40;74.50
43651;DHT22;29247;50.944;5.382;2022-10-26T16:10:24;20.30;74.50
43651;DHT22;29247;50.944;5.382;2022-10-26T16:12:52;20.30;74.60
43651;DHT22;29247;50.944;5.382;2022-10-26T16:15:22;20.30;74.80
43651;DHT22;29247;50.944;5.382;2022-10-26T16:17:49;20.20;74.70
43651;DHT22;29247;50.944;5.382;2022-10-26T16:20:18;20.20;74.80
43651;DHT22;29247;50.944;5.382;2022-10-26T16:22:49;20.20;75.00
43651;DHT22;29247;50.944;5.382;2022-10-26T16:25:19;20.10;75.10
43651;DHT22;29247;50.944;5.382;2022-10-26T16:27:47;20.10;75.30
43651;DHT22;29247;50.944;5.382;2022-10-26T16:30:19;20.10;75.50
43651;DHT22;29247;50.944;5.382;2022-10-26T16:32:47;20.00;75.60
43651;DHT22;29247;50.944;5.382;2022-10-26T16:35:13;20.00;75.70
43651;DHT22;29247;50.944;5.382;2022-10-26T16:37:40;19.90;75.80
43651;DHT22;29247;50.944;5.382;2022-10-26T16:40:07;19.90;76.00
43651;DHT22;29247;50.944;5.382;2022-10-26T16:42:38;19.80;76.10
43651;DHT22;29247;50.944;5.382;2022-10-26T16:45:10;19.80;76.30
43651;DHT22;29247;50.944;5.382;2022-10-26T16:47:38;19.80;76.50
43651;DHT22;29247;50.944;5.382;2022-10-26T16:50:06;19.70;76.70
43651;DHT22;29247;50.944;5.382;2022-10-26T16:52:36;19.60;76.80
43651;DHT22;29247;50.944;5.382;2022-10-26T16:55:05;19.60;77.00
43651;DHT22;29247;50.944;5.382;2022-10-26T16:57:31;19.50;77.10
43651;DHT22;29247;50.944;5.382;2022-10-26T16:59:57;19.50;77.30
43651;DHT22;29247;50.944;5.382;2022-10-26T17:02:23;19.50;77.70
43651;DHT22;29247;50.944;5.382;2022-10-26T17:04:51;19.40;77.80
43651;DHT22;29247;50.944;5.382;2022-10-26T17:07:19;19.40;78.10
43651;DHT22;29247;50.944;5.382;2022-10-26T17:09:47;19.40;78.20
43651;DHT22;29247;50.944;5.382;2022-10-26T17:12:13;19.30;78.30
43651;DHT22;29247;50.944;5.382;2022-10-26T17:14:44;19.30;78.40
43651;DHT22;29247;50.944;5.382;2022-10-26T17:17:09;19.30;78.50
43651;DHT22;29247;50.944;5.382;2022-10-26T17:19:39;19.20;78.50
43651;DHT22;29247;50.944;5.382;2022-10-26T17:22:07;19.20;78.60
43651;DHT22;29247;50.944;5.382;2022-10-26T17:24:35;19.20;78.70
43651;DHT22;29247;50.944;5.382;2022-10-26T17:27:03;19.10;78.80
43651;DHT22;29247;50.944;5.382;2022-10-26T17:29:29;19.10;78.90
43651;DHT22;29247;50.944;5.382;2022-10-26T17:31:55;19.00;79.00
43651;DHT22;29247;50.944;5.382;2022-10-26T17:34:23;19.00;79.30
43651;DHT22;29247;50.944;5.382;2022-10-26T17:36:52;19.00;79.30
43651;DHT22;29247;50.944;5.382;2022-10-26T17:39:18;18.90;79.30
43651;DHT22;29247;50.944;5.382;2022-10-26T17:41:44;18.90;79.40
43651;DHT22;29247;50.944;5.382;2022-10-26T17:44:10;18.90;79.60
43651;DHT22;29247;50.944;5.382;2022-10-26T17:46:39;18.80;79.70
43651;DHT22;29247;50.944;5.382;2022-10-26T17:49:05;18.80;79.80
43651;DHT22;29247;50.944;5.382;2022-10-26T17:51:30;18.80;80.00
43651;DHT22;29247;50.944;5.382;2022-10-26T17:53:56;18.70;80.00
43651;DHT22;29247;50.944;5.382;2022-10-26T17:56:31;18.70;80.00
43651;DHT22;29247;50.944;5.382;2022-10-26T17:59:04;18.60;80.10
43651;DHT22;29247;50.944;5.382;2022-10-26T18:01:32;18.60;80.20
43651;DHT22;29247;50.944;5.382;2022-10-26T18:03:58;18.60;80.30
43651;DHT22;29247;50.944;5.382;2022-10-26T18:06:24;18.60;80.40
43651;DHT22;29247;50.944;5.382;2022-10-26T18:08:50;18.50;80.40